Time;durP1;ratioP1;P1;durP2;ratioP2;P2;SDS_P1;SDS_P2;PMS_P1;PMS_P2;Temp;Humidity;BMP_temperature;BMP_pressure;BME280_temperature;BME280_humidity;BME280_pressure;Samples;Min_cycle;Max_cycle;Signal;HPM_P1;HPM_P2
2022/02/03 00:00:39;;;;;;;10.60;5.90;;;;;;;0.28;86.52;98272.89;105954;1277;22577;-77
2022/02/03 00:05:53;;;;;;;11.00;5.60;;;;;;;0.25;86.36;98278.28;105914;1277;137481;-76
2022/02/03 00:08:31;;;;;;;10.10;5.70;;;;;;;0.23;86.27;98274.93;106007;1278;24364;-78
2022/02/03 00:22:16;;;;;;;8.90;5.20;;;;;;;0.27;86.31;98314.13;105720;1277;138544;-77
2022/02/03 00:27:57;;;;;;;12.60;6.40;;;;;;;0.29;86.34;98331.33;105855;1278;137607;-77
2022/02/03 00:30:34;;;;;;;8.90;5.30;;;;;;;0.28;86.15;98340.55;106133;1277;26642;-77
2022/02/03 00:50:03;;;;;;;14.90;8.20;;;;;;;0.36;86.71;98368.40;106050;1279;23230;-76
2022/02/03 00:52:37;;;;;;;14.90;8.00;;;;;;;0.37;87.00;98367.55;106042;1279;137084;-76
2022/02/03 00:55:05;;;;;;;15.80;9.00;;;;;;;0.39;87.07;98368.91;106093;1278;24288;-76
2022/02/03 00:57:40;;;;;;;17.40;9.40;;;;;;;0.41;87.12;98372.97;105929;1277;137699;-76
2022/02/03 01:00:15;;;;;;;18.90;9.80;;;;;;;0.42;86.98;98376.64;106525;1277;24323;-77
2022/02/03 01:02:51;;;;;;;18.60;8.80;;;;;;;0.44;87.01;98387.11;106191;1277;22545;-78
2022/02/03 01:05:19;;;;;;;14.60;7.50;;;;;;;0.44;86.87;98387.54;106053;1277;136939;-77
2022/02/03 01:07:49;;;;;;;15.90;8.50;;;;;;;0.43;87.11;98386.52;106010;1278;29676;-77
2022/02/03 01:10:22;;;;;;;21.00;10.40;;;;;;;0.44;87.18;98384.06;106136;1277;136937;-77
2022/02/03 01:34:53;;;;;;;16.00;9.60;;;;;;;0.42;88.01;98390.51;106015;1277;137322;-77
2022/02/03 01:45:27;;;;;;;12.90;7.90;;;;;;;0.34;88.36;98402.00;105934;1277;24087;-78
2022/02/03 01:52:52;;;;;;;13.40;8.50;;;;;;;0.29;88.75;98412.59;105957;1279;136995;-77
2022/02/03 01:55:26;;;;;;;9.40;5.90;;;;;;;0.27;88.66;98413.54;106161;1277;25321;-77
2022/02/03 01:58:11;;;;;;;11.60;6.10;;;;;;;0.26;88.86;98408.46;105987;1277;138489;-77
2022/02/03 02:00:41;;;;;;;9.30;5.40;;;;;;;0.24;88.69;98412.23;106047;1277;22566;-77
2022/02/03 02:03:13;;;;;;;7.90;5.90;;;;;;;0.23;88.80;98419.54;106122;1277;24270;-77
2022/02/03 02:06:07;;;;;;;10.70;5.20;;;;;;;0.21;89.03;98417.11;106506;1277;137028;-77
2022/02/03 02:08:46;;;;;;;8.90;5.50;;;;;;;0.17;88.90;98425.12;106098;1278;22608;-77
2022/02/03 02:12:03;;;;;;;8.60;5.10;;;;;;;0.12;88.22;98422.94;105789;1278;138036;-76
2022/02/03 02:18:08;;;;;;;8.50;5.10;;;;;;;0.14;88.83;98428.93;106186;1277;137317;-79
2022/02/03 02:38:09;;;;;;;6.30;2.60;;;;;;;-0.23;89.47;98466.79;105918;1277;25284;-77
2022/02/03 02:43:49;;;;;;;4.50;2.80;;;;;;;-0.40;90.10;98486.58;106057;1277;24395;-77
2022/02/03 02:46:23;;;;;;;4.10;2.50;;;;;;;-0.50;90.38;98489.41;106010;1277;137178;-77
2022/02/03 02:49:12;;;;;;;5.90;3.70;;;;;;;-0.57;90.69;98497.17;106560;1277;24236;-76
2022/02/03 02:52:09;;;;;;;5.40;3.70;;;;;;;-0.60;90.85;98494.80;106094;1278;22567;-76
2022/02/03 02:58:04;;;;;;;6.00;3.30;;;;;;;-0.47;91.36;98497.17;106334;1278;22568;-76
2022/02/03 03:29:16;;;;;;;7.40;4.20;;;;;;;-0.36;89.27;98536.74;106094;1277;138283;-77
2022/02/03 03:32:13;;;;;;;4.30;3.70;;;;;;;-0.37;89.11;98545.82;106339;1277;30344;-77
2022/02/03 03:35:50;;;;;;;13.30;9.20;;;;;;;-0.40;88.79;98549.27;106162;1277;138213;-77
2022/02/03 03:40:10;;;;;;;5.40;4.90;;;;;;;-0.45;88.51;98557.02;106141;1277;138253;-78
2022/02/03 03:42:43;;;;;;;5.20;3.10;;;;;;;-0.47;88.38;98561.67;106373;1277;22592;-78
2022/02/03 03:45:12;;;;;;;8.40;3.60;;;;;;;-0.48;88.32;98565.52;106484;1277;22554;-79
2022/02/03 03:47:41;;;;;;;5.20;3.60;;;;;;;-0.48;87.84;98568.02;106284;1277;138256;-78
2022/02/03 03:50:15;;;;;;;5.00;2.90;;;;;;;-0.49;88.02;98570.34;106106;1277;22637;-79
2022/02/03 03:52:57;;;;;;;6.50;3.40;;;;;;;-0.50;87.94;98574.86;105977;1278;137980;-79
2022/02/03 03:58:39;;;;;;;6.00;3.60;;;;;;;-0.50;87.78;98587.02;105939;1278;138156;-77
2022/02/03 04:34:23;;;;;;;3.70;2.70;;;;;;;-0.61;84.69;98634.02;106122;1277;22548;-77
2022/02/03 04:56:00;;;;;;;4.80;2.70;;;;;;;-0.71;85.97;98651.70;105874;1279;138839;-76
2022/02/03 05:05:18;;;;;;;5.90;3.50;;;;;;;-0.74;85.95;98656.33;106146;1277;22566;-76
2022/02/03 05:08:25;;;;;;;3.50;2.90;;;;;;;-0.73;85.27;98658.19;107102;1277;137828;-76
2022/02/03 05:44:28;;;;;;;8.00;5.00;;;;;;;-0.78;85.64;98694.02;106216;1277;138105;-76
2022/02/03 06:00:54;;;;;;;6.70;3.40;;;;;;;-0.74;84.96;98700.54;106438;1277;137522;-76
2022/02/03 06:03:48;;;;;;;4.20;2.40;;;;;;;-0.90;83.46;98712.43;106247;1277;22567;-76
2022/02/03 06:06:52;;;;;;;4.10;2.70;;;;;;;-0.97;83.76;98714.42;106150;1277;137439;-76
2022/02/03 06:09:28;;;;;;;4.10;2.30;;;;;;;-1.04;83.20;98724.98;106010;1277;25328;-75
2022/02/03 06:15:10;;;;;;;4.90;2.40;;;;;;;-1.17;83.05;98731.81;106437;1277;22708;-75
2022/02/03 06:17:36;;;;;;;3.90;2.60;;;;;;;-1.17;83.30;98735.33;106397;1277;22709;-75
2022/02/03 06:22:55;;;;;;;4.80;3.20;;;;;;;-1.13;83.85;98746.19;106490;1277;24289;-75
2022/02/03 06:28:09;;;;;;;7.50;3.10;;;;;;;-1.07;83.79;98763.58;106072;1277;23069;-76
2022/02/03 06:30:36;;;;;;;5.00;3.30;;;;;;;-1.03;83.62;98770.47;106025;1277;138104;-76
2022/02/03 06:33:03;;;;;;;6.00;3.00;;;;;;;-0.99;83.74;98774.27;106222;1277;22111;-75
2022/02/03 06:35:30;;;;;;;4.60;2.40;;;;;;;-0.93;83.74;98784.41;105933;1277;22737;-75
2022/02/03 06:38:10;;;;;;;5.30;3.30;;;;;;;-0.90;83.39;98785.11;105873;1279;136910;-75
2022/02/03 06:40:37;;;;;;;5.90;2.80;;;;;;;-0.87;83.40;98783.84;106142;1277;23111;-75
2022/02/03 06:43:04;;;;;;;4.50;2.60;;;;;;;-0.85;83.00;98786.52;105970;1277;137348;-75
2022/02/03 06:45:43;;;;;;;4.10;3.50;;;;;;;-0.83;82.92;98787.54;105780;1277;22548;-76
2022/02/03 06:48:16;;;;;;;4.90;2.40;;;;;;;-0.79;82.66;98788.40;106101;1277;138566;-75
2022/02/03 06:50:51;;;;;;;5.60;3.40;;;;;;;-0.76;82.45;98789.31;106084;1277;22913;-75
2022/02/03 06:53:23;;;;;;;8.60;4.20;;;;;;;-0.72;82.43;98788.73;106180;1277;24322;-74
2022/02/03 06:58:25;;;;;;;4.90;2.80;;;;;;;-0.66;82.34;98792.19;106264;1277;22551;-75
2022/02/03 07:01:02;;;;;;;6.90;3.70;;;;;;;-0.64;81.88;98796.45;106551;1278;137077;-75
2022/02/03 07:03:51;;;;;;;6.30;3.00;;;;;;;-0.62;81.50;98797.39;105946;1279;22562;-75
2022/02/03 07:06:18;;;;;;;6.00;3.00;;;;;;;-0.61;81.63;98796.63;105832;1277;137861;-76
2022/02/03 07:08:47;;;;;;;5.70;3.10;;;;;;;-0.60;81.31;98794.73;106326;1277;22557;-75
2022/02/03 07:11:20;;;;;;;3.70;2.30;;;;;;;-0.61;80.99;98794.09;106627;1277;22570;-75
2022/02/03 07:13:47;;;;;;;4.80;2.30;;;;;;;-0.61;80.29;98798.06;106021;1277;137094;-75
2022/02/03 07:16:14;;;;;;;6.20;2.90;;;;;;;-0.61;80.17;98793.62;105992;1279;25335;-75
2022/02/03 07:18:41;;;;;;;6.50;3.40;;;;;;;-0.60;80.57;98796.83;106359;1277;137979;-75
2022/02/03 07:21:12;;;;;;;4.70;2.40;;;;;;;-0.55;80.57;98795.97;106382;1277;22545;-75
2022/02/03 07:23:39;;;;;;;6.80;3.10;;;;;;;-0.49;80.71;98801.96;106168;1278;25335;-75
2022/02/03 07:26:06;;;;;;;4.60;2.90;;;;;;;-0.42;80.82;98807.05;106142;1277;137128;-75
2022/02/03 07:28:34;;;;;;;5.10;2.80;;;;;;;-0.34;80.55;98813.17;106499;1277;25920;-75
2022/02/03 07:31:01;;;;;;;6.60;3.10;;;;;;;-0.25;80.82;98825.25;106081;1277;137132;-75
2022/02/03 07:33:31;;;;;;;7.30;3.70;;;;;;;-0.17;80.94;98829.20;106047;1277;22583;-75
2022/02/03 07:35:58;;;;;;;9.40;5.20;;;;;;;-0.11;81.10;98836.90;106122;1277;137337;-75
2022/02/03 07:38:25;;;;;;;8.70;5.00;;;;;;;-0.07;80.56;98842.06;106113;1277;23959;-76
2022/02/03 07:40:53;;;;;;;9.60;5.10;;;;;;;-0.03;80.74;98846.08;106235;1278;22625;-75
2022/02/03 07:43:21;;;;;;;8.50;4.50;;;;;;;0.01;80.81;98850.42;106114;1278;137288;-75
2022/02/03 07:45:49;;;;;;;13.00;5.10;;;;;;;0.05;80.68;98845.01;106410;1277;22724;-76
2022/02/03 07:48:20;;;;;;;6.50;4.40;;;;;;;0.09;80.68;98849.69;106095;1277;137304;-76
2022/02/03 07:50:47;;;;;;;10.40;5.30;;;;;;;0.15;80.10;98853.55;106268;1277;25532;-75
2022/02/03 07:53:15;;;;;;;12.80;5.10;;;;;;;0.18;79.99;98846.80;106262;1277;25261;-75
2022/02/03 07:55:42;;;;;;;10.70;5.50;;;;;;;0.20;79.93;98853.70;106102;1277;137168;-75
2022/02/03 07:58:09;;;;;;;13.40;5.80;;;;;;;0.22;79.94;98851.02;106061;1279;22546;-76
2022/02/03 08:00:36;;;;;;;8.80;5.40;;;;;;;0.22;79.61;98854.52;105783;1279;137669;-75
2022/02/03 08:03:10;;;;;;;9.50;5.40;;;;;;;0.26;79.61;98850.62;106076;1279;25376;-75
2022/02/03 08:05:37;;;;;;;10.70;5.40;;;;;;;0.34;79.71;98848.63;106284;1279;24373;-75
2022/02/03 08:08:18;;;;;;;12.20;5.80;;;;;;;0.43;79.55;98850.08;106185;1277;137289;-77
2022/02/03 08:10:51;;;;;;;9.80;5.00;;;;;;;0.48;79.01;98850.07;105981;1280;22610;-75
2022/02/03 08:13:34;;;;;;;8.80;4.90;;;;;;;0.51;78.64;98843.30;105983;1277;137595;-75
2022/02/03 08:16:22;;;;;;;9.00;4.20;;;;;;;0.53;77.92;98843.13;106101;1277;26514;-75
2022/02/03 08:18:54;;;;;;;6.90;4.10;;;;;;;0.54;78.02;98843.63;105986;1279;137240;-75
2022/02/03 08:21:22;;;;;;;9.80;5.50;;;;;;;0.55;77.67;98849.79;106013;1278;24323;-75
2022/02/03 08:32:16;;;;;;;7.70;4.60;;;;;;;0.83;78.17;98839.39;106191;1277;136952;-75
2022/02/03 08:35:09;;;;;;;5.90;2.80;;;;;;;0.94;76.85;98834.97;106196;1279;22708;-75
2022/02/03 08:43:07;;;;;;;7.80;4.20;;;;;;;0.95;76.23;98822.68;106286;1279;137919;-76
2022/02/03 08:45:34;;;;;;;6.00;3.20;;;;;;;1.00;75.31;98820.48;106087;1279;22859;-75
2022/02/03 08:48:02;;;;;;;9.00;3.90;;;;;;;1.03;74.89;98813.06;106346;1277;137251;-76
2022/02/03 08:50:29;;;;;;;7.00;3.70;;;;;;;1.15;75.67;98809.89;106151;1277;25257;-75
2022/02/03 08:53:06;;;;;;;7.60;4.20;;;;;;;1.33;75.89;98809.02;106080;1277;22566;-77
2022/02/03 08:55:51;;;;;;;7.90;3.80;;;;;;;1.54;75.42;98811.55;106003;1277;137054;-76
2022/02/03 09:39:14;;;;;;;11.10;5.30;;;;;;;2.27;72.59;98827.42;106334;1277;22571;-76
2022/02/03 09:55:45;;;;;;;9.70;4.90;;;;;;;2.20;72.81;98795.20;105981;1278;137550;-76
2022/02/03 09:58:14;;;;;;;10.20;5.40;;;;;;;2.21;72.97;98788.43;106116;1277;24233;-76
2022/02/03 10:01:05;;;;;;;13.40;6.00;;;;;;;2.22;73.29;98789.14;106142;1279;137421;-77
2022/02/03 10:03:39;;;;;;;11.90;6.80;;;;;;;2.28;73.61;98785.15;106222;1279;24353;-78
2022/02/03 10:06:19;;;;;;;13.50;7.80;;;;;;;2.35;73.33;98782.39;106735;1277;22553;-77
2022/02/03 10:08:50;;;;;;;12.40;7.10;;;;;;;2.40;73.15;98781.77;106143;1277;138716;-77
2022/02/03 10:11:19;;;;;;;12.00;6.40;;;;;;;2.45;73.01;98773.81;106345;1277;23369;-77
2022/02/03 10:13:52;;;;;;;16.80;8.50;;;;;;;2.50;73.07;98767.94;106569;1278;137465;-77
2022/02/03 10:16:28;;;;;;;22.80;10.20;;;;;;;2.52;73.41;98769.98;106420;1277;22555;-77
2022/02/03 10:19:18;;;;;;;17.20;7.70;;;;;;;2.57;73.09;98770.35;106311;1277;137542;-78
2022/02/03 10:21:49;;;;;;;14.70;7.60;;;;;;;2.57;72.86;98770.17;106227;1277;23953;-77
2022/02/03 10:24:18;;;;;;;18.70;9.20;;;;;;;2.55;73.02;98768.58;106261;1279;23510;-77
2022/02/03 10:26:52;;;;;;;13.90;7.60;;;;;;;2.54;73.17;98769.44;105823;1278;137332;-77
2022/02/03 10:29:27;;;;;;;19.70;9.70;;;;;;;2.56;73.28;98770.63;106226;1277;22565;-77
2022/02/03 10:31:55;;;;;;;19.30;9.70;;;;;;;2.56;73.35;98767.65;106577;1280;137109;-77
2022/02/03 10:34:27;;;;;;;18.50;9.90;;;;;;;2.55;73.27;98766.23;106063;1277;25386;-78
2022/02/03 11:06:40;;;;;;;20.30;9.00;;;;;;;2.55;73.70;98742.48;106092;1278;25378;-77
2022/02/03 11:09:18;;;;;;;19.30;8.80;;;;;;;2.61;73.91;98740.61;105896;1278;137099;-78
2022/02/03 11:11:54;;;;;;;16.30;9.30;;;;;;;2.66;74.39;98737.59;106066;1277;24304;-79
2022/02/03 11:14:23;;;;;;;24.50;10.90;;;;;;;2.71;74.33;98735.59;106096;1278;137539;-79
2022/02/03 11:16:52;;;;;;;28.90;9.70;;;;;;;2.75;74.30;98733.01;106246;1277;22563;-76
2022/02/03 11:19:23;;;;;;;21.50;10.20;;;;;;;2.78;74.38;98735.08;106317;1277;138118;-77
2022/02/03 11:21:57;;;;;;;19.70;9.30;;;;;;;2.87;74.42;98735.06;106107;1278;25251;-80
2022/02/03 11:24:30;;;;;;;18.60;9.00;;;;;;;2.96;74.01;98731.63;106088;1279;22753;-79
2022/02/03 11:37:58;;;;;;;17.40;8.20;;;;;;;3.15;73.68;98736.48;106311;1277;137515;-77
2022/02/03 11:54:52;;;;;;;21.10;10.10;;;;;;;3.03;73.22;98725.20;106377;1277;22727;-77
2022/02/03 12:22:28;;;;;;;22.50;11.50;;;;;;;3.42;72.80;98714.63;105911;1277;24300;-77
2022/02/03 12:39:10;;;;;;;25.60;11.50;;;;;;;3.36;72.87;98701.98;105930;1277;137611;-77
2022/02/03 12:42:06;;;;;;;24.40;10.80;;;;;;;3.49;73.25;98686.54;106234;1278;22573;-77
2022/02/03 12:44:38;;;;;;;21.50;10.00;;;;;;;3.69;72.68;98679.89;105986;1277;137597;-76
2022/02/03 12:47:06;;;;;;;22.30;11.00;;;;;;;3.81;72.30;98679.03;106256;1277;22550;-76
2022/02/03 12:49:37;;;;;;;20.10;9.70;;;;;;;3.96;72.08;98673.13;106123;1277;137546;-77
2022/02/03 12:52:31;;;;;;;16.80;9.00;;;;;;;4.11;71.67;98668.40;106218;1278;24219;-76
2022/02/03 12:54:58;;;;;;;19.30;8.70;;;;;;;4.09;71.18;98672.34;106513;1278;23890;-76
2022/02/03 12:57:32;;;;;;;19.30;9.30;;;;;;;4.07;71.40;98678.02;106554;1277;137838;-76
2022/02/03 13:00:25;;;;;;;16.50;9.10;;;;;;;4.06;71.47;98682.03;106310;1277;22605;-76
2022/02/03 13:02:59;;;;;;;25.10;9.30;;;;;;;4.06;71.37;98688.63;106450;1277;137217;-78
2022/02/03 13:05:33;;;;;;;24.90;9.50;;;;;;;4.02;71.31;98676.77;106273;1277;24485;-77
2022/02/03 13:08:04;;;;;;;17.50;8.10;;;;;;;4.00;71.42;98678.71;106084;1277;138196;-77
2022/02/03 13:10:35;;;;;;;23.70;9.00;;;;;;;3.93;71.33;98685.35;106271;1277;24452;-77
2022/02/03 13:13:24;;;;;;;19.90;7.90;;;;;;;3.87;71.43;98678.87;106157;1278;22731;-77
2022/02/03 13:15:52;;;;;;;16.40;8.00;;;;;;;3.75;70.84;98676.95;106193;1277;137056;-77
2022/02/03 13:18:32;;;;;;;21.00;8.70;;;;;;;3.59;70.73;98673.61;106176;1277;25433;-76
2022/02/03 13:21:08;;;;;;;23.10;9.30;;;;;;;3.46;71.53;98669.98;105946;1277;137913;-76
2022/02/03 13:23:40;;;;;;;20.00;9.00;;;;;;;3.40;71.89;98665.70;106463;1277;22848;-76
2022/02/03 13:26:14;;;;;;;21.50;8.20;;;;;;;3.36;71.89;98665.86;105986;1277;137898;-76
2022/02/03 13:29:03;;;;;;;18.10;8.40;;;;;;;3.34;72.08;98661.26;106036;1277;22575;-76
2022/02/03 13:37:15;;;;;;;18.50;8.90;;;;;;;3.26;72.11;98650.79;106208;1278;25272;-77
2022/02/03 13:40:13;;;;;;;29.10;9.10;;;;;;;3.26;72.72;98645.11;106094;1277;137210;-77
2022/02/03 13:42:47;;;;;;;15.20;7.60;;;;;;;3.25;72.81;98648.58;106199;1277;22645;-77
2022/02/03 13:45:16;;;;;;;17.10;7.90;;;;;;;3.21;72.50;98652.06;106403;1277;137211;-77
2022/02/03 13:47:43;;;;;;;17.40;8.20;;;;;;;3.18;72.34;98645.65;106058;1278;22596;-78
2022/02/03 13:50:21;;;;;;;13.20;7.40;;;;;;;3.17;72.76;98644.17;106139;1277;137808;-76
2022/02/03 14:21:26;;;;;;;12.70;6.20;;;;;;;4.04;70.13;98614.30;106342;1277;137389;-76
2022/02/03 14:29:28;;;;;;;12.00;5.30;;;;;;;4.09;68.16;98603.23;106200;1277;23158;-77
2022/02/03 14:32:03;;;;;;;14.40;5.90;;;;;;;4.01;68.32;98600.74;105805;1277;137521;-77
2022/02/03 14:34:33;;;;;;;11.10;5.60;;;;;;;3.98;68.84;98602.14;106246;1277;26206;-77
2022/02/03 14:39:59;;;;;;;13.00;5.20;;;;;;;3.89;67.94;98597.33;106160;1277;137316;-77
2022/02/03 14:42:34;;;;;;;15.20;6.10;;;;;;;3.82;68.12;98593.42;106245;1277;22560;-78
2022/02/03 14:45:03;;;;;;;14.80;7.10;;;;;;;3.71;68.34;98592.11;105936;1277;137332;-77
2022/02/03 14:47:32;;;;;;;18.90;7.20;;;;;;;3.64;68.69;98596.12;106156;1277;24322;-77
2022/02/03 14:50:01;;;;;;;15.30;7.30;;;;;;;3.58;68.43;98594.89;106012;1277;137672;-77
2022/02/03 15:00:30;;;;;;;17.90;6.80;;;;;;;3.28;68.87;98593.00;106207;1277;24298;-77
2022/02/03 15:02:58;;;;;;;16.60;6.80;;;;;;;3.23;69.06;98596.79;106280;1277;138105;-77
2022/02/03 15:05:31;;;;;;;16.80;6.70;;;;;;;3.20;69.31;98589.51;106092;1280;25481;-77
2022/02/03 15:08:02;;;;;;;25.60;7.80;;;;;;;3.14;68.98;98585.42;105998;1278;137747;-78
2022/02/03 15:15:28;;;;;;;24.10;7.50;;;;;;;2.86;69.58;98580.67;106589;1277;137856;-77
2022/02/03 15:17:56;;;;;;;25.40;9.60;;;;;;;2.77;69.90;98583.15;106160;1278;25264;-77
2022/02/03 15:20:23;;;;;;;21.80;9.10;;;;;;;2.67;70.01;98587.80;106114;1278;137369;-76
2022/02/03 15:22:51;;;;;;;20.90;8.20;;;;;;;2.58;70.23;98594.54;106399;1277;24374;-79
2022/02/03 15:25:20;;;;;;;20.70;9.10;;;;;;;2.47;70.43;98595.20;106619;1277;22847;-77
2022/02/03 15:27:47;;;;;;;19.00;8.60;;;;;;;2.36;70.72;98595.48;106003;1278;137062;-77
2022/02/03 15:30:15;;;;;;;26.00;10.30;;;;;;;2.25;71.05;98595.20;106294;1277;25268;-78
2022/02/03 15:32:43;;;;;;;21.00;9.30;;;;;;;2.18;71.40;98594.82;106016;1279;138002;-78
2022/02/03 15:35:15;;;;;;;25.80;9.70;;;;;;;2.11;71.59;98593.83;106015;1277;24304;-77
2022/02/03 15:37:45;;;;;;;22.60;8.60;;;;;;;2.06;71.77;98592.64;105886;1278;22595;-78
2022/02/03 15:40:28;;;;;;;21.20;7.90;;;;;;;2.00;71.88;98593.85;106113;1277;136955;-78
2022/02/03 15:45:24;;;;;;;23.70;9.00;;;;;;;1.88;72.35;98591.58;106187;1277;137078;-78
2022/02/03 15:47:57;;;;;;;20.90;8.60;;;;;;;1.83;72.56;98589.89;106340;1277;22567;-78
2022/02/03 16:13:15;;;;;;;34.40;13.10;;;;;;;1.50;73.50;98578.04;105860;1276;137952;-76
2022/02/03 16:18:04;;;;;;;24.00;11.40;;;;;;;1.28;74.08;98567.30;106333;1277;22576;-78
2022/02/03 16:21:21;;;;;;;36.00;13.40;;;;;;;1.23;74.31;98569.49;106087;1277;137551;-78
2022/02/03 16:53:52;;;;;;;50.70;22.20;;;;;;;0.89;75.97;98566.17;106839;1277;22817;-77
2022/02/03 16:56:23;;;;;;;51.80;22.30;;;;;;;0.88;76.04;98565.38;106349;1277;137577;-78
2022/02/03 16:58:50;;;;;;;57.70;25.20;;;;;;;0.87;75.80;98563.88;106852;1277;22557;-78
2022/02/03 17:01:17;;;;;;;57.90;24.10;;;;;;;0.84;75.88;98562.95;106397;1278;22590;-78
2022/02/03 17:03:44;;;;;;;49.50;20.70;;;;;;;0.82;75.88;98559.52;106496;1277;137393;-77
2022/02/03 17:06:13;;;;;;;47.00;20.40;;;;;;;0.80;76.04;98556.19;106680;1278;23486;-78
2022/02/03 17:08:41;;;;;;;46.80;22.30;;;;;;;0.76;75.79;98553.08;107063;1277;138717;-78
2022/02/03 17:11:08;;;;;;;39.70;18.50;;;;;;;0.71;75.90;98550.34;106479;1277;22601;-78
2022/02/03 17:13:35;;;;;;;37.00;16.90;;;;;;;0.68;75.64;98549.08;106773;1277;25335;-78
2022/02/03 17:16:04;;;;;;;34.70;17.60;;;;;;;0.67;75.72;98545.54;106636;1277;138447;-78
2022/02/03 17:18:31;;;;;;;44.10;19.30;;;;;;;0.65;76.08;98544.15;107080;1277;22571;-78
2022/02/03 17:20:58;;;;;;;45.60;20.70;;;;;;;0.63;75.92;98544.00;106302;1277;137441;-78
2022/02/03 17:23:27;;;;;;;45.30;21.20;;;;;;;0.60;75.91;98541.99;106786;1277;24259;-78
2022/02/03 17:26:10;;;;;;;45.40;20.50;;;;;;;0.55;76.06;98538.95;106315;1277;22583;-78
2022/02/03 17:28:51;;;;;;;50.90;23.10;;;;;;;0.52;76.14;98540.12;106446;1277;138149;-80
2022/02/03 17:31:26;;;;;;;46.20;20.60;;;;;;;0.46;76.10;98536.88;105895;1278;22632;-79
2022/02/03 18:07:36;;;;;;;46.10;18.60;;;;;;;0.16;76.91;98522.77;106606;1277;24251;-77
2022/02/03 18:10:12;;;;;;;44.30;18.40;;;;;;;0.11;76.81;98518.60;107057;1277;139189;-79
2022/02/03 18:19:22;;;;;;;45.50;21.90;;;;;;;0.05;77.23;98513.66;106785;1276;22575;-77
2022/02/03 18:29:50;;;;;;;48.80;22.20;;;;;;;0.03;77.22;98508.39;106347;1277;25439;-77
2022/02/03 18:50:54;;;;;;;49.40;21.70;;;;;;;0.23;77.30;98491.50;106292;1277;140423;-79
2022/02/03 18:53:31;;;;;;;57.30;23.70;;;;;;;0.19;77.39;98487.66;106733;1277;23283;-78
2022/02/03 18:56:11;;;;;;;59.70;25.00;;;;;;;0.18;77.22;98483.83;107149;1276;24307;-78
2022/02/03 19:15:37;;;;;;;49.50;22.50;;;;;;;0.31;77.50;98467.67;106329;1277;138047;-78
2022/02/03 19:24:16;;;;;;;56.40;25.10;;;;;;;0.50;77.21;98464.61;106458;1277;22702;-76
2022/02/03 19:26:55;;;;;;;48.70;24.00;;;;;;;0.51;76.93;98462.57;106748;1277;22642;-77
2022/02/03 20:05:04;;;;;;;91.10;33.00;;;;;;;0.41;76.70;98408.13;106185;1277;137291;-77
2022/02/03 20:10:42;;;;;;;81.40;30.20;;;;;;;0.36;76.82;98408.13;106168;1277;137370;-77
2022/02/03 20:13:23;;;;;;;89.30;31.60;;;;;;;0.37;76.52;98404.15;106194;1277;22582;-77
2022/02/03 20:15:50;;;;;;;91.30;31.50;;;;;;;0.38;76.71;98403.60;106215;1277;137741;-77
2022/02/03 20:18:19;;;;;;;186.70;53.30;;;;;;;0.43;76.86;98401.15;105991;1277;23563;-78
2022/02/03 20:21:00;;;;;;;233.30;63.50;;;;;;;0.46;76.90;98399.51;106910;1277;22590;-77
2022/02/03 20:23:29;;;;;;;264.00;71.10;;;;;;;0.49;76.79;98392.21;106101;1277;137593;-77
2022/02/03 20:25:57;;;;;;;244.10;64.00;;;;;;;0.51;76.75;98389.13;105967;1278;25385;-77
2022/02/03 20:28:38;;;;;;;178.10;51.90;;;;;;;0.51;76.65;98384.19;106205;1277;138003;-76
2022/02/03 20:31:05;;;;;;;116.50;38.00;;;;;;;0.50;76.59;98381.13;106378;1277;24242;-77
2022/02/03 20:33:33;;;;;;;94.10;32.80;;;;;;;0.50;76.57;98384.92;106207;1277;138024;-79
2022/02/03 20:36:00;;;;;;;91.00;32.60;;;;;;;0.49;76.57;98380.60;106681;1277;22579;-77
2022/02/03 20:38:26;;;;;;;75.50;29.40;;;;;;;0.48;76.75;98381.04;106408;1277;24344;-77
2022/02/03 20:40:53;;;;;;;65.00;28.10;;;;;;;0.48;76.59;98372.64;106311;1276;138362;-77
2022/02/03 20:43:21;;;;;;;58.10;24.70;;;;;;;0.50;76.34;98374.23;106235;1277;22567;-77
2022/02/03 20:45:48;;;;;;;64.50;28.70;;;;;;;0.52;76.37;98373.90;106460;1277;138225;-77
2022/02/03 20:48:15;;;;;;;57.00;26.70;;;;;;;0.54;76.41;98373.39;106934;1277;22635;-76
2022/02/03 20:50:46;;;;;;;61.60;28.30;;;;;;;0.55;76.55;98373.44;106438;1277;22566;-76
2022/02/03 20:53:14;;;;;;;60.90;27.20;;;;;;;0.56;76.57;98375.80;106266;1277;137515;-76
2022/02/03 20:55:42;;;;;;;59.80;27.40;;;;;;;0.58;76.62;98370.10;106429;1279;22576;-77
2022/02/03 20:58:23;;;;;;;65.60;29.20;;;;;;;0.57;76.36;98369.84;106438;1277;138329;-76
2022/02/03 21:00:57;;;;;;;69.20;29.10;;;;;;;0.54;76.49;98367.75;106249;1277;22592;-78
2022/02/03 21:03:34;;;;;;;58.00;25.60;;;;;;;0.53;76.35;98363.28;106068;1277;137678;-76
2022/02/03 21:06:12;;;;;;;62.20;26.90;;;;;;;0.51;76.41;98367.79;105905;1277;139409;-76
2022/02/03 21:08:41;;;;;;;52.80;24.40;;;;;;;0.51;76.22;98364.64;106579;1277;22725;-76
2022/02/03 21:11:09;;;;;;;50.50;21.10;;;;;;;0.51;76.24;98364.04;107153;1277;24231;-76
2022/02/03 21:13:36;;;;;;;48.70;20.60;;;;;;;0.52;76.12;98363.92;106480;1277;137776;-76
2022/02/03 21:16:06;;;;;;;40.90;20.10;;;;;;;0.54;75.96;98361.19;106403;1277;24240;-76
2022/02/03 21:18:37;;;;;;;41.90;20.40;;;;;;;0.55;75.91;98359.06;106485;1277;137620;-76
2022/02/03 21:21:06;;;;;;;42.20;19.00;;;;;;;0.55;76.00;98359.92;106684;1277;25326;-76
2022/02/03 21:23:34;;;;;;;41.50;18.30;;;;;;;0.56;76.13;98358.49;106140;1277;138044;-76
2022/02/03 21:26:04;;;;;;;47.60;19.50;;;;;;;0.56;75.96;98354.13;106285;1277;24286;-76
2022/02/03 21:28:34;;;;;;;40.80;19.30;;;;;;;0.55;75.76;98355.15;106383;1277;22741;-75
2022/02/03 21:31:03;;;;;;;41.60;18.50;;;;;;;0.54;75.81;98354.79;106648;1276;137594;-75
2022/02/03 21:33:34;;;;;;;37.30;18.90;;;;;;;0.53;75.68;98354.25;106237;1277;25761;-75
2022/02/03 21:36:17;;;;;;;39.00;18.30;;;;;;;0.50;75.67;98352.02;106077;1277;138033;-75
2022/02/03 21:38:44;;;;;;;56.20;26.00;;;;;;;0.48;75.59;98349.55;106863;1277;25510;-76
2022/02/03 21:41:14;;;;;;;119.60;43.90;;;;;;;0.47;75.87;98346.92;106458;1277;22610;-75
2022/02/03 21:43:41;;;;;;;119.40;46.90;;;;;;;0.49;75.92;98351.83;106089;1277;138180;-78
2022/02/03 21:46:22;;;;;;;95.00;39.80;;;;;;;0.53;75.77;98349.95;106148;1277;22862;-76
2022/02/03 21:48:50;;;;;;;87.50;33.80;;;;;;;0.55;76.23;98345.70;105952;1277;138238;-76
2022/02/03 21:51:35;;;;;;;81.40;31.50;;;;;;;0.57;76.14;98340.29;106458;1277;22585;-76
2022/02/03 21:54:03;;;;;;;66.70;29.30;;;;;;;0.59;75.93;98339.04;106051;1277;138092;-76
2022/02/03 21:56:30;;;;;;;64.10;27.90;;;;;;;0.60;76.05;98339.13;106372;1278;23031;-76
2022/02/03 21:58:57;;;;;;;57.10;23.40;;;;;;;0.59;76.07;98335.25;106338;1277;23061;-76
2022/02/03 22:01:27;;;;;;;50.40;22.20;;;;;;;0.59;75.84;98337.42;106439;1277;137446;-76
2022/02/03 22:03:54;;;;;;;46.70;21.50;;;;;;;0.58;75.83;98338.32;106264;1277;24319;-77
2022/02/03 22:06:21;;;;;;;50.70;22.20;;;;;;;0.55;75.66;98337.20;106374;1278;137572;-76
2022/02/03 22:08:48;;;;;;;51.30;22.60;;;;;;;0.52;75.66;98338.73;106461;1278;22592;-76
2022/02/03 22:11:15;;;;;;;46.80;21.00;;;;;;;0.51;75.73;98341.33;106520;1277;24241;-75
2022/02/03 22:13:42;;;;;;;45.30;22.70;;;;;;;0.52;75.88;98337.30;105873;1277;137975;-75
2022/02/03 22:16:13;;;;;;;57.60;24.80;;;;;;;0.54;75.97;98332.29;106425;1277;23346;-77
2022/02/03 22:18:54;;;;;;;59.50;25.10;;;;;;;0.56;76.17;98329.52;106130;1277;138642;-75
2022/02/03 22:24:18;;;;;;;57.40;23.60;;;;;;;0.56;76.09;98326.67;105993;1277;138109;-77
2022/02/03 22:27:10;;;;;;;53.20;23.70;;;;;;;0.55;76.09;98328.64;106135;1277;25361;-75
2022/02/03 22:47:58;;;;;;;80.40;34.80;;;;;;;0.51;76.48;98339.25;106408;1277;138597;-76
2022/02/03 22:50:23;;;;;;;97.00;40.70;;;;;;;0.50;76.70;98345.46;106499;1277;23939;-76
2022/02/03 22:52:50;;;;;;;98.40;41.10;;;;;;;0.47;76.52;98347.39;106362;1277;25471;-76
2022/02/03 22:55:17;;;;;;;103.80;43.80;;;;;;;0.45;76.74;98346.45;106190;1277;137989;-76
2022/02/03 22:57:56;;;;;;;103.40;41.90;;;;;;;0.42;76.83;98342.13;106141;1278;24264;-76
2022/02/03 23:00:43;;;;;;;107.60;40.90;;;;;;;0.41;77.11;98342.20;105912;1279;138279;-75